EST,Max TemperatureF,Mean TemperatureF,Min TemperatureF,Max Dew PointF,MeanDew PointF,Min DewpointF,Max Humidity, Mean Humidity, Min Humidity, Max Sea Level PressureIn, Mean Sea Level PressureIn, Min Sea Level PressureIn, Max VisibilityMiles, Mean VisibilityMiles, Min VisibilityMiles, Max Wind SpeedMPH, Mean Wind SpeedMPH, Max Gust SpeedMPH,PrecipitationIn, CloudCover, Events, WindDirDegrees
2012-1-1,66,50,34,59,45,29,96,76,40,30.22,30.11,30.03,10,9,2,10,2,18,0.07,4,Rain,223
2012-1-2,44,37,28,28,16,8,61,44,27,30.30,30.22,30.12,10,10,10,10,3,28,0.00,2,,328
2012-1-3,34,28,21,19,10,5,74,51,35,30.50,30.40,30.31,10,10,2,13,5,21,0.00,2,Snow,337
2012-1-4,52,34,17,24,17,12,88,58,22,30.42,30.31,30.20,10,10,10,5,1,,0.00,0,,10
2012-1-5,57,42,28,36,28,23,92,69,28,30.25,30.18,30.14,10,10,7,4,0,,0.00,0,,200
2012-1-6,64,45,26,38,32,25,96,74,26,30.19,30.11,30.05,10,10,7,4,0,,0.00,0,,-1
2012-1-7,64,52,39,56,50,37,100,89,70,30.14,30.09,30.03,10,7,1,14,1,28,0.51,7,Rain-Thunderstorm,320
2012-1-8,60,54,48,58,53,48,100,98,88,30.22,30.17,30.12,8,2,0,4,0,,0.09,7,Fog-Rain,51
2012-1-9,68,60,51,59,55,52,100,95,63,30.18,30.14,30.06,10,4,0,7,0,,0.01,8,Fog-Rain,130
2012-1-10,60,56,53,58,56,53,100,97,81,30.09,30.01,29.83,10,4,0,8,1,,0.17,8,Fog-Rain,123
2012-1-11,62,55,48,57,52,43,97,87,60,29.81,29.66,29.54,10,9,4,13,8,28,0.15,8,Rain-Thunderstorm,149
2012-1-12,55,42,30,46,40,19,93,79,54,29.97,29.74,29.60,10,10,5,9,3,23,0.01,7,Rain-Snow,220
2012-1-13,35,30,26,22,18,15,78,63,50,30.24,30.11,29.99,10,10,10,6,3,,0.00,5,,-1
2012-1-14,52,36,21,25,20,16,89,58,27,30.32,30.22,30.10,10,10,9,9,1,21,0.00,0,,203
2012-1-15,50,39,28,28,25,22,82,63,35,30.49,30.40,30.21,10,10,10,9,1,,0.00,0,,43
2012-1-16,55,42,28,32,27,24,85,52,31,30.50,30.40,30.30,10,10,10,10,3,16,0.00,5,,118
2012-1-17,62,54,45,59,50,36,100,85,62,30.26,30.09,29.96,10,9,2,14,4,28,0.43,7,Rain,174
2012-1-18,50,39,28,46,29,23,87,70,46,30.20,30.13,30.05,10,10,9,12,5,21,0.01,1,,338
2012-1-19,55,40,26,36,26,22,92,64,27,30.19,30.11,30.02,10,10,7,10,2,16,0.00,2,,146
2012-1-20,57,50,43,52,47,32,100,88,56,30.09,30.01,29.96,10,6,1,9,4,16,0.27,8,Rain,104
2012-1-21,64,58,50,61,56,47,100,91,82,30.06,29.93,29.86,10,9,1,10,3,,0.35,8,Rain-Thunderstorm,170
2012-1-22,55,50,45,52,47,43,100,94,89,30.16,30.11,30.06,10,6,1,14,5,24,0.31,8,Rain,94
2012-1-23,54,49,44,50,47,43,100,95,86,30.08,30.02,29.96,10,6,0,15,8,28,0.57,7,Fog-Rain,86
2012-1-24,62,52,39,50,42,34,100,86,36,30.25,30.19,30.08,10,5,0,4,0,,0.01,3,Fog,240
2012-1-25,66,48,30,46,39,30,100,70,40,30.27,30.18,30.10,10,10,9,10,3,,0.00,2,,104
2012-1-26,68,60,53,61,56,46,100,88,69,30.07,29.90,29.68,10,8,2,16,6,23,0.21,7,Rain,138
2012-1-27,57,46,35,55,44,33,96,79,49,30.06,29.87,29.68,10,9,2,10,4,17,0.20,6,Rain,254
2012-1-28,57,44,30,41,30,14,100,68,30,30.32,30.19,30.07,10,8,5,12,1,20,0.00,1,,343
2012-1-29,54,38,23,25,20,10,88,61,18,30.46,30.38,30.33,10,10,10,4,0,,0.00,0,,-1
2012-1-30,62,44,25,29,24,16,88,63,20,30.46,30.39,30.34,10,10,10,4,0,,0.00,0,,195
2012-1-31,66,47,28,38,29,20,89,60,17,30.40,30.33,30.27,10,10,10,8,1,17,0.00,1,,163